Galchutt, North Dakota
Current Conditions -  °F | °C
As of 8:35 AM on Thursday 27 Nov 2014 (Local Time) from KBWP Reporting Station
Clear Clear  
Wind Chill: -9°   Ceiling: Unl
Heat Index: -9°   Visibility: 10mi
Dew Point: -17°   Wind: 0mph
Humidity: 71%   Direction: NA
Pressure: 30.53"   Gusts: NA
Location:  46.3099°N, 96.7867°W
Report Text: KBWP 271435Z AUTO 00000KT 10SM CLR M23/M27 A3053 RMK AO1
Loading
Personal Weather Stations






























Interactive Weather Map New forecast layout! Learn more

10-Day Weather Forecast

Advertisements
Track Severe Weather on mobile